sensor_id;sensor_type;location;lat;lon;timestamp;temperature;humidity
45283;DHT22;31023;44.994;1.796;2023-07-20T00:02:11;18.50;80.40
45283;DHT22;31023;44.994;1.796;2023-07-20T00:04:36;18.50;80.70
45283;DHT22;31023;44.994;1.796;2023-07-20T00:07:03;18.50;81.30
45283;DHT22;31023;44.994;1.796;2023-07-20T00:09:28;18.50;81.20
45283;DHT22;31023;44.994;1.796;2023-07-20T00:11:54;18.40;81.70
45283;DHT22;31023;44.994;1.796;2023-07-20T00:14:20;18.50;81.90
45283;DHT22;31023;44.994;1.796;2023-07-20T00:16:45;18.50;81.80
45283;DHT22;31023;44.994;1.796;2023-07-20T00:19:27;18.50;81.80
45283;DHT22;31023;44.994;1.796;2023-07-20T00:21:56;18.50;81.90
45283;DHT22;31023;44.994;1.796;2023-07-20T00:24:21;18.40;82.20
45283;DHT22;31023;44.994;1.796;2023-07-20T00:26:47;18.40;82.40
45283;DHT22;31023;44.994;1.796;2023-07-20T00:29:12;18.50;82.30
45283;DHT22;31023;44.994;1.796;2023-07-20T00:31:38;18.40;82.50
45283;DHT22;31023;44.994;1.796;2023-07-20T00:34:04;18.50;82.40
45283;DHT22;31023;44.994;1.796;2023-07-20T00:36:29;18.40;82.50
45283;DHT22;31023;44.994;1.796;2023-07-20T00:38:55;18.40;82.70
45283;DHT22;31023;44.994;1.796;2023-07-20T00:41:21;18.30;82.90
45283;DHT22;31023;44.994;1.796;2023-07-20T00:43:46;18.30;82.70
45283;DHT22;31023;44.994;1.796;2023-07-20T00:46:12;18.20;82.80
45283;DHT22;31023;44.994;1.796;2023-07-20T00:48:38;18.30;82.70
45283;DHT22;31023;44.994;1.796;2023-07-20T00:51:04;18.20;83.10
45283;DHT22;31023;44.994;1.796;2023-07-20T00:53:30;18.10;83.70
45283;DHT22;31023;44.994;1.796;2023-07-20T00:55:56;18.00;84.00
45283;DHT22;31023;44.994;1.796;2023-07-20T00:58:22;18.00;84.00
45283;DHT22;31023;44.994;1.796;2023-07-20T01:00:47;18.00;83.90
45283;DHT22;31023;44.994;1.796;2023-07-20T01:03:13;18.10;83.60
45283;DHT22;31023;44.994;1.796;2023-07-20T01:05:47;18.10;83.50
45283;DHT22;31023;44.994;1.796;2023-07-20T01:08:24;18.10;83.40
45283;DHT22;31023;44.994;1.796;2023-07-20T01:10:55;18.10;83.50
45283;DHT22;31023;44.994;1.796;2023-07-20T01:13:22;18.00;83.70
45283;DHT22;31023;44.994;1.796;2023-07-20T01:15:49;18.00;84.20
45283;DHT22;31023;44.994;1.796;2023-07-20T01:18:14;17.90;84.40
45283;DHT22;31023;44.994;1.796;2023-07-20T01:20:40;17.90;84.30
45283;DHT22;31023;44.994;1.796;2023-07-20T01:31:17;17.80;84.60
45283;DHT22;31023;44.994;1.796;2023-07-20T01:33:43;17.80;84.70
45283;DHT22;31023;44.994;1.796;2023-07-20T01:36:09;17.80;84.90
45283;DHT22;31023;44.994;1.796;2023-07-20T01:38:36;17.70;85.10
45283;DHT22;31023;44.994;1.796;2023-07-20T01:41:01;17.70;85.20
45283;DHT22;31023;44.994;1.796;2023-07-20T01:43:27;17.70;85.40
45283;DHT22;31023;44.994;1.796;2023-07-20T01:45:53;17.60;85.50
45283;DHT22;31023;44.994;1.796;2023-07-20T01:48:18;17.60;86.00
45283;DHT22;31023;44.994;1.796;2023-07-20T01:50:44;17.50;86.30
45283;DHT22;31023;44.994;1.796;2023-07-20T01:53:09;17.40;86.90
45283;DHT22;31023;44.994;1.796;2023-07-20T01:55:35;17.30;87.40
45283;DHT22;31023;44.994;1.796;2023-07-20T01:58:01;17.30;88.30
45283;DHT22;31023;44.994;1.796;2023-07-20T02:00:27;17.30;88.40
45283;DHT22;31023;44.994;1.796;2023-07-20T02:02:52;17.20;88.80
45283;DHT22;31023;44.994;1.796;2023-07-20T02:05:18;17.10;89.10
45283;DHT22;31023;44.994;1.796;2023-07-20T02:07:43;17.10;89.50
45283;DHT22;31023;44.994;1.796;2023-07-20T02:10:09;17.20;89.30
45283;DHT22;31023;44.994;1.796;2023-07-20T02:12:35;17.20;89.20
45283;DHT22;31023;44.994;1.796;2023-07-20T02:15:00;17.30;89.20
45283;DHT22;31023;44.994;1.796;2023-07-20T02:17:26;17.30;88.60
45283;DHT22;31023;44.994;1.796;2023-07-20T02:19:52;17.30;88.40
45283;DHT22;31023;44.994;1.796;2023-07-20T02:22:18;17.30;88.60
45283;DHT22;31023;44.994;1.796;2023-07-20T02:24:43;17.20;88.90
45283;DHT22;31023;44.994;1.796;2023-07-20T02:27:09;17.20;89.10
45283;DHT22;31023;44.994;1.796;2023-07-20T02:29:34;17.20;89.00
45283;DHT22;31023;44.994;1.796;2023-07-20T02:32:01;17.20;88.80
45283;DHT22;31023;44.994;1.796;2023-07-20T02:34:27;17.20;89.10
45283;DHT22;31023;44.994;1.796;2023-07-20T02:36:52;17.10;89.30
45283;DHT22;31023;44.994;1.796;2023-07-20T02:39:18;17.10;89.30
45283;DHT22;31023;44.994;1.796;2023-07-20T02:41:43;17.10;89.20
45283;DHT22;31023;44.994;1.796;2023-07-20T02:44:09;17.10;89.10
45283;DHT22;31023;44.994;1.796;2023-07-20T02:46:34;17.10;89.60
45283;DHT22;31023;44.994;1.796;2023-07-20T02:49:00;17.10;89.70
45283;DHT22;31023;44.994;1.796;2023-07-20T02:51:26;17.10;90.30
45283;DHT22;31023;44.994;1.796;2023-07-20T02:53:52;17.00;90.50
45283;DHT22;31023;44.994;1.796;2023-07-20T02:56:17;17.00;90.40
45283;DHT22;31023;44.994;1.796;2023-07-20T02:58:43;17.00;90.30
45283;DHT22;31023;44.994;1.796;2023-07-20T03:01:09;16.90;90.50
45283;DHT22;31023;44.994;1.796;2023-07-20T03:03:36;16.80;90.90
45283;DHT22;31023;44.994;1.796;2023-07-20T03:06:04;16.70;91.30
45283;DHT22;31023;44.994;1.796;2023-07-20T03:08:30;16.60;91.50
45283;DHT22;31023;44.994;1.796;2023-07-20T03:10:55;16.60;91.60
45283;DHT22;31023;44.994;1.796;2023-07-20T03:13:21;16.60;91.90
45283;DHT22;31023;44.994;1.796;2023-07-20T03:15:46;16.50;92.00
45283;DHT22;31023;44.994;1.796;2023-07-20T03:18:12;16.50;92.30
45283;DHT22;31023;44.994;1.796;2023-07-20T03:20:38;16.50;92.40
45283;DHT22;31023;44.994;1.796;2023-07-20T03:23:03;16.60;92.40
45283;DHT22;31023;44.994;1.796;2023-07-20T03:25:29;16.50;92.30
45283;DHT22;31023;44.994;1.796;2023-07-20T03:27:54;16.50;92.50
45283;DHT22;31023;44.994;1.796;2023-07-20T03:30:20;16.30;93.00
45283;DHT22;31023;44.994;1.796;2023-07-20T03:32:45;16.30;92.90
45283;DHT22;31023;44.994;1.796;2023-07-20T03:35:11;16.30;93.10
45283;DHT22;31023;44.994;1.796;2023-07-20T03:37:37;16.30;93.20
45283;DHT22;31023;44.994;1.796;2023-07-20T03:40:03;16.30;93.30
45283;DHT22;31023;44.994;1.796;2023-07-20T03:42:30;16.20;93.70
45283;DHT22;31023;44.994;1.796;2023-07-20T03:44:55;16.10;94.00
45283;DHT22;31023;44.994;1.796;2023-07-20T03:47:21;16.10;94.20
45283;DHT22;31023;44.994;1.796;2023-07-20T03:49:47;16.10;94.10
45283;DHT22;31023;44.994;1.796;2023-07-20T03:52:13;16.00;94.30
45283;DHT22;31023;44.994;1.796;2023-07-20T03:54:38;15.90;94.60
45283;DHT22;31023;44.994;1.796;2023-07-20T03:57:04;16.00;94.50
45283;DHT22;31023;44.994;1.796;2023-07-20T03:59:29;16.10;94.30
45283;DHT22;31023;44.994;1.796;2023-07-20T04:01:55;16.10;94.20
45283;DHT22;31023;44.994;1.796;2023-07-20T04:04:21;16.10;93.90
45283;DHT22;31023;44.994;1.796;2023-07-20T04:06:46;16.10;93.90
45283;DHT22;31023;44.994;1.796;2023-07-20T04:09:12;16.00;94.20
45283;DHT22;31023;44.994;1.796;2023-07-20T04:11:38;16.00;94.30
45283;DHT22;31023;44.994;1.796;2023-07-20T04:14:04;16.10;94.20
45283;DHT22;31023;44.994;1.796;2023-07-20T04:16:29;16.00;94.40
45283;DHT22;31023;44.994;1.796;2023-07-20T04:18:55;16.00;94.20
45283;DHT22;31023;44.994;1.796;2023-07-20T04:21:21;16.00;94.20
45283;DHT22;31023;44.994;1.796;2023-07-20T04:23:47;16.00;94.30
45283;DHT22;31023;44.994;1.796;2023-07-20T04:26:13;15.90;94.40
45283;DHT22;31023;44.994;1.796;2023-07-20T04:28:40;16.00;94.20
45283;DHT22;31023;44.994;1.796;2023-07-20T04:31:11;16.00;94.20
45283;DHT22;31023;44.994;1.796;2023-07-20T04:33:37;16.00;94.00
45283;DHT22;31023;44.994;1.796;2023-07-20T04:36:03;16.10;93.80
45283;DHT22;31023;44.994;1.796;2023-07-20T04:38:29;16.10;93.60
45283;DHT22;31023;44.994;1.796;2023-07-20T04:40:55;16.30;93.40
45283;DHT22;31023;44.994;1.796;2023-07-20T04:43:20;16.40;93.10
45283;DHT22;31023;44.994;1.796;2023-07-20T04:45:46;16.70;92.60
45283;DHT22;31023;44.994;1.796;2023-07-20T04:48:12;17.10;91.40
45283;DHT22;31023;44.994;1.796;2023-07-20T04:50:40;17.50;90.60
45283;DHT22;31023;44.994;1.796;2023-07-20T04:53:08;17.90;89.20
45283;DHT22;31023;44.994;1.796;2023-07-20T04:55:35;18.20;87.30
45283;DHT22;31023;44.994;1.796;2023-07-20T04:58:02;18.50;85.70
45283;DHT22;31023;44.994;1.796;2023-07-20T05:00:38;19.00;84.30
45283;DHT22;31023;44.994;1.796;2023-07-20T05:03:03;19.50;82.60
45283;DHT22;31023;44.994;1.796;2023-07-20T05:05:30;19.90;80.70
45283;DHT22;31023;44.994;1.796;2023-07-20T05:07:56;20.10;79.00
45283;DHT22;31023;44.994;1.796;2023-07-20T05:10:21;20.40;78.00
45283;DHT22;31023;44.994;1.796;2023-07-20T05:12:47;20.90;75.80
45283;DHT22;31023;44.994;1.796;2023-07-20T05:15:12;21.50;73.30
45283;DHT22;31023;44.994;1.796;2023-07-20T05:17:38;21.80;71.90
45283;DHT22;31023;44.994;1.796;2023-07-20T05:20:05;22.00;70.70
45283;DHT22;31023;44.994;1.796;2023-07-20T05:22:30;22.10;70.30
45283;DHT22;31023;44.994;1.796;2023-07-20T05:24:56;22.50;69.20
45283;DHT22;31023;44.994;1.796;2023-07-20T05:27:22;22.20;69.00
45283;DHT22;31023;44.994;1.796;2023-07-20T05:29:47;22.60;67.80
45283;DHT22;31023;44.994;1.796;2023-07-20T05:32:13;22.80;67.20
45283;DHT22;31023;44.994;1.796;2023-07-20T05:34:39;23.00;67.20
45283;DHT22;31023;44.994;1.796;2023-07-20T05:37:05;23.20;66.80
45283;DHT22;31023;44.994;1.796;2023-07-20T05:39:34;23.80;64.80
45283;DHT22;31023;44.994;1.796;2023-07-20T05:41:59;24.30;62.80
45283;DHT22;31023;44.994;1.796;2023-07-20T05:44:25;24.70;62.00
45283;DHT22;31023;44.994;1.796;2023-07-20T05:46:50;24.80;60.80
45283;DHT22;31023;44.994;1.796;2023-07-20T05:49:16;25.10;60.80
45283;DHT22;31023;44.994;1.796;2023-07-20T05:51:41;25.30;60.20
45283;DHT22;31023;44.994;1.796;2023-07-20T05:54:07;25.70;58.90
45283;DHT22;31023;44.994;1.796;2023-07-20T05:56:33;26.10;57.90
45283;DHT22;31023;44.994;1.796;2023-07-20T05:58:59;26.20;57.70
45283;DHT22;31023;44.994;1.796;2023-07-20T06:01:24;25.90;57.30
45283;DHT22;31023;44.994;1.796;2023-07-20T06:03:52;26.50;56.60
45283;DHT22;31023;44.994;1.796;2023-07-20T06:06:18;26.80;55.80
45283;DHT22;31023;44.994;1.796;2023-07-20T06:08:44;27.40;54.50
45283;DHT22;31023;44.994;1.796;2023-07-20T06:11:10;27.50;53.30
45283;DHT22;31023;44.994;1.796;2023-07-20T06:13:35;27.70;53.40
45283;DHT22;31023;44.994;1.796;2023-07-20T06:16:01;28.00;53.30
45283;DHT22;31023;44.994;1.796;2023-07-20T06:18:27;28.40;53.10
45283;DHT22;31023;44.994;1.796;2023-07-20T06:20:52;28.10;52.80
45283;DHT22;31023;44.994;1.796;2023-07-20T06:23:18;28.10;52.10
45283;DHT22;31023;44.994;1.796;2023-07-20T06:25:44;28.90;50.70
45283;DHT22;31023;44.994;1.796;2023-07-20T06:28:10;29.00;50.40
45283;DHT22;31023;44.994;1.796;2023-07-20T06:30:35;29.10;50.10
45283;DHT22;31023;44.994;1.796;2023-07-20T06:33:01;29.30;50.60
45283;DHT22;31023;44.994;1.796;2023-07-20T06:35:26;29.80;49.50
45283;DHT22;31023;44.994;1.796;2023-07-20T06:37:52;28.90;51.10
45283;DHT22;31023;44.994;1.796;2023-07-20T06:40:17;29.00;50.90
45283;DHT22;31023;44.994;1.796;2023-07-20T06:42:43;29.60;48.40
45283;DHT22;31023;44.994;1.796;2023-07-20T06:45:09;29.40;49.30
45283;DHT22;31023;44.994;1.796;2023-07-20T06:47:34;29.00;49.40
45283;DHT22;31023;44.994;1.796;2023-07-20T06:50:00;29.10;49.60
45283;DHT22;31023;44.994;1.796;2023-07-20T06:52:26;29.30;48.60
45283;DHT22;31023;44.994;1.796;2023-07-20T06:54:51;29.60;48.40
45283;DHT22;31023;44.994;1.796;2023-07-20T06:57:17;29.70;48.40
45283;DHT22;31023;44.994;1.796;2023-07-20T06:59:43;29.80;46.50
45283;DHT22;31023;44.994;1.796;2023-07-20T07:02:08;30.20;47.40
45283;DHT22;31023;44.994;1.796;2023-07-20T07:04:34;30.30;47.80
45283;DHT22;31023;44.994;1.796;2023-07-20T07:06:59;30.10;48.00
45283;DHT22;31023;44.994;1.796;2023-07-20T07:09:25;30.80;46.70
45283;DHT22;31023;44.994;1.796;2023-07-20T07:11:51;31.40;45.80
45283;DHT22;31023;44.994;1.796;2023-07-20T07:14:19;31.90;45.30
45283;DHT22;31023;44.994;1.796;2023-07-20T07:16:45;31.00;45.90
45283;DHT22;31023;44.994;1.796;2023-07-20T07:19:11;31.70;45.80
45283;DHT22;31023;44.994;1.796;2023-07-20T07:21:36;32.20;42.90
45283;DHT22;31023;44.994;1.796;2023-07-20T07:24:02;32.20;44.10
45283;DHT22;31023;44.994;1.796;2023-07-20T07:26:27;32.30;43.00
45283;DHT22;31023;44.994;1.796;2023-07-20T07:28:53;32.30;43.10
45283;DHT22;31023;44.994;1.796;2023-07-20T07:31:18;32.30;41.90
45283;DHT22;31023;44.994;1.796;2023-07-20T07:33:44;32.30;43.20
45283;DHT22;31023;44.994;1.796;2023-07-20T07:36:09;32.70;43.10
45283;DHT22;31023;44.994;1.796;2023-07-20T07:38:35;32.30;43.50
45283;DHT22;31023;44.994;1.796;2023-07-20T07:41:01;32.10;44.20
45283;DHT22;31023;44.994;1.796;2023-07-20T07:43:26;32.60;42.80
45283;DHT22;31023;44.994;1.796;2023-07-20T07:45:53;33.40;42.30
45283;DHT22;31023;44.994;1.796;2023-07-20T07:48:19;33.80;40.90
45283;DHT22;31023;44.994;1.796;2023-07-20T07:50:45;33.10;43.70
45283;DHT22;31023;44.994;1.796;2023-07-20T07:53:11;34.60;41.70
45283;DHT22;31023;44.994;1.796;2023-07-20T07:55:36;35.60;39.80
45283;DHT22;31023;44.994;1.796;2023-07-20T07:58:02;36.50;39.70
45283;DHT22;31023;44.994;1.796;2023-07-20T08:00:27;35.80;40.50
45283;DHT22;31023;44.994;1.796;2023-07-20T08:02:53;36.10;39.10
45283;DHT22;31023;44.994;1.796;2023-07-20T08:05:19;36.80;37.70
45283;DHT22;31023;44.994;1.796;2023-07-20T08:07:44;36.80;38.40
45283;DHT22;31023;44.994;1.796;2023-07-20T08:10:10;37.10;38.40
45283;DHT22;31023;44.994;1.796;2023-07-20T08:12:36;37.40;38.00
45283;DHT22;31023;44.994;1.796;2023-07-20T08:15:02;37.80;36.60
45283;DHT22;31023;44.994;1.796;2023-07-20T08:17:28;37.60;36.60
45283;DHT22;31023;44.994;1.796;2023-07-20T08:19:53;38.30;36.50
45283;DHT22;31023;44.994;1.796;2023-07-20T08:22:19;37.90;35.30
45283;DHT22;31023;44.994;1.796;2023-07-20T08:24:44;38.50;36.10
45283;DHT22;31023;44.994;1.796;2023-07-20T08:27:10;38.90;36.00
45283;DHT22;31023;44.994;1.796;2023-07-20T08:29:36;38.20;36.50
45283;DHT22;31023;44.994;1.796;2023-07-20T08:32:02;38.40;36.30
45283;DHT22;31023;44.994;1.796;2023-07-20T08:34:27;36.90;37.10
45283;DHT22;31023;44.994;1.796;2023-07-20T08:36:53;38.40;37.50
45283;DHT22;31023;44.994;1.796;2023-07-20T08:39:18;37.00;37.40
45283;DHT22;31023;44.994;1.796;2023-07-20T08:41:44;36.30;37.80
45283;DHT22;31023;44.994;1.796;2023-07-20T08:44:10;36.60;37.90
45283;DHT22;31023;44.994;1.796;2023-07-20T08:46:37;38.40;35.80
45283;DHT22;31023;44.994;1.796;2023-07-20T08:49:03;39.40;34.40
45283;DHT22;31023;44.994;1.796;2023-07-20T08:51:29;38.90;34.70
45283;DHT22;31023;44.994;1.796;2023-07-20T08:53:55;40.00;34.80
45283;DHT22;31023;44.994;1.796;2023-07-20T08:56:21;40.10;36.10
45283;DHT22;31023;44.994;1.796;2023-07-20T08:58:48;40.20;36.30
45283;DHT22;31023;44.994;1.796;2023-07-20T09:01:14;39.60;34.60
45283;DHT22;31023;44.994;1.796;2023-07-20T09:03:40;40.00;35.10
45283;DHT22;31023;44.994;1.796;2023-07-20T09:06:08;40.20;35.30
45283;DHT22;31023;44.994;1.796;2023-07-20T09:08:37;41.20;36.50
45283;DHT22;31023;44.994;1.796;2023-07-20T09:11:02;41.00;35.60
45283;DHT22;31023;44.994;1.796;2023-07-20T09:13:28;40.90;34.10
45283;DHT22;31023;44.994;1.796;2023-07-20T09:15:54;41.60;36.20
45283;DHT22;31023;44.994;1.796;2023-07-20T09:18:24;40.50;35.60
45283;DHT22;31023;44.994;1.796;2023-07-20T09:20:50;40.90;34.60
45283;DHT22;31023;44.994;1.796;2023-07-20T09:23:15;40.30;36.20
45283;DHT22;31023;44.994;1.796;2023-07-20T09:25:42;41.00;33.60
45283;DHT22;31023;44.994;1.796;2023-07-20T09:28:07;41.80;35.20
45283;DHT22;31023;44.994;1.796;2023-07-20T09:30:33;42.20;34.70
45283;DHT22;31023;44.994;1.796;2023-07-20T09:32:59;39.40;36.30
45283;DHT22;31023;44.994;1.796;2023-07-20T09:35:24;36.90;37.50
45283;DHT22;31023;44.994;1.796;2023-07-20T09:37:54;37.90;37.20
45283;DHT22;31023;44.994;1.796;2023-07-20T09:40:20;34.60;41.00
45283;DHT22;31023;44.994;1.796;2023-07-20T09:42:45;34.20;41.90
45283;DHT22;31023;44.994;1.796;2023-07-20T09:45:11;32.20;42.00
45283;DHT22;31023;44.994;1.796;2023-07-20T09:47:37;30.00;43.60
45283;DHT22;31023;44.994;1.796;2023-07-20T09:50:06;31.00;44.80
45283;DHT22;31023;44.994;1.796;2023-07-20T09:52:38;36.20;40.50
45283;DHT22;31023;44.994;1.796;2023-07-20T09:55:09;39.40;33.80
45283;DHT22;31023;44.994;1.796;2023-07-20T09:57:36;39.90;34.50
45283;DHT22;31023;44.994;1.796;2023-07-20T10:00:03;40.90;33.30
45283;DHT22;31023;44.994;1.796;2023-07-20T10:02:33;41.30;33.80
45283;DHT22;31023;44.994;1.796;2023-07-20T10:05:02;41.30;33.40
45283;DHT22;31023;44.994;1.796;2023-07-20T10:07:29;41.30;34.80
45283;DHT22;31023;44.994;1.796;2023-07-20T10:09:55;41.90;34.50
45283;DHT22;31023;44.994;1.796;2023-07-20T10:12:22;41.40;32.70
45283;DHT22;31023;44.994;1.796;2023-07-20T10:17:59;41.70;34.80
45283;DHT22;31023;44.994;1.796;2023-07-20T10:20:27;40.00;35.00
45283;DHT22;31023;44.994;1.796;2023-07-20T10:22:53;40.10;35.80
45283;DHT22;31023;44.994;1.796;2023-07-20T10:25:20;41.20;34.20
45283;DHT22;31023;44.994;1.796;2023-07-20T10:27:47;41.60;33.50
45283;DHT22;31023;44.994;1.796;2023-07-20T10:30:12;39.90;31.50
45283;DHT22;31023;44.994;1.796;2023-07-20T10:32:38;38.40;35.30
45283;DHT22;31023;44.994;1.796;2023-07-20T10:35:11;34.60;38.80
45283;DHT22;31023;44.994;1.796;2023-07-20T10:42:50;39.00;36.20
45283;DHT22;31023;44.994;1.796;2023-07-20T10:45:16;37.30;36.30
45283;DHT22;31023;44.994;1.796;2023-07-20T10:47:45;34.20;38.80
45283;DHT22;31023;44.994;1.796;2023-07-20T10:50:11;33.00;41.80
45283;DHT22;31023;44.994;1.796;2023-07-20T10:52:37;31.60;44.40
45283;DHT22;31023;44.994;1.796;2023-07-20T10:55:16;31.20;46.70
45283;DHT22;31023;44.994;1.796;2023-07-20T10:57:42;31.50;48.40
45283;DHT22;31023;44.994;1.796;2023-07-20T11:00:11;31.70;46.20
45283;DHT22;31023;44.994;1.796;2023-07-20T11:02:47;32.60;47.70
45283;DHT22;31023;44.994;1.796;2023-07-20T11:08:11;32.00;47.60
45283;DHT22;31023;44.994;1.796;2023-07-20T11:10:37;31.80;49.10
45283;DHT22;31023;44.994;1.796;2023-07-20T11:13:21;31.60;47.30
45283;DHT22;31023;44.994;1.796;2023-07-20T11:16:09;31.20;49.00
45283;DHT22;31023;44.994;1.796;2023-07-20T11:18:34;31.20;49.40
45283;DHT22;31023;44.994;1.796;2023-07-20T11:21:06;31.60;48.50
45283;DHT22;31023;44.994;1.796;2023-07-20T11:23:32;31.30;49.40
45283;DHT22;31023;44.994;1.796;2023-07-20T11:25:58;31.00;48.70
45283;DHT22;31023;44.994;1.796;2023-07-20T11:28:25;31.00;47.10
45283;DHT22;31023;44.994;1.796;2023-07-20T11:30:54;30.60;48.50
45283;DHT22;31023;44.994;1.796;2023-07-20T11:33:19;30.60;49.00
45283;DHT22;31023;44.994;1.796;2023-07-20T11:35:45;30.50;52.60
45283;DHT22;31023;44.994;1.796;2023-07-20T11:38:14;30.30;48.90
45283;DHT22;31023;44.994;1.796;2023-07-20T11:40:44;29.90;50.80
45283;DHT22;31023;44.994;1.796;2023-07-20T11:43:10;29.80;48.30
45283;DHT22;31023;44.994;1.796;2023-07-20T11:45:37;29.60;50.70
45283;DHT22;31023;44.994;1.796;2023-07-20T11:48:03;30.10;51.90
45283;DHT22;31023;44.994;1.796;2023-07-20T11:50:28;29.80;50.40
45283;DHT22;31023;44.994;1.796;2023-07-20T11:52:54;29.80;52.20
45283;DHT22;31023;44.994;1.796;2023-07-20T11:55:19;29.70;51.00
45283;DHT22;31023;44.994;1.796;2023-07-20T11:58:04;29.80;50.10
45283;DHT22;31023;44.994;1.796;2023-07-20T12:00:30;29.20;49.10
45283;DHT22;31023;44.994;1.796;2023-07-20T12:02:55;29.20;48.40
45283;DHT22;31023;44.994;1.796;2023-07-20T12:05:24;28.90;49.90
45283;DHT22;31023;44.994;1.796;2023-07-20T12:07:50;29.50;55.20
45283;DHT22;31023;44.994;1.796;2023-07-20T12:10:23;29.70;54.50
45283;DHT22;31023;44.994;1.796;2023-07-20T12:12:48;29.70;52.70
45283;DHT22;31023;44.994;1.796;2023-07-20T12:15:26;29.80;52.20
45283;DHT22;31023;44.994;1.796;2023-07-20T12:17:55;30.00;51.70
45283;DHT22;31023;44.994;1.796;2023-07-20T12:20:28;30.10;52.30
45283;DHT22;31023;44.994;1.796;2023-07-20T12:23:04;29.60;53.10
45283;DHT22;31023;44.994;1.796;2023-07-20T12:25:33;29.00;53.70
45283;DHT22;31023;44.994;1.796;2023-07-20T12:28:06;29.00;57.20
45283;DHT22;31023;44.994;1.796;2023-07-20T12:30:32;28.90;52.60
45283;DHT22;31023;44.994;1.796;2023-07-20T12:32:58;29.20;54.50
45283;DHT22;31023;44.994;1.796;2023-07-20T12:35:24;29.30;51.80
45283;DHT22;31023;44.994;1.796;2023-07-20T12:37:49;29.20;52.40
45283;DHT22;31023;44.994;1.796;2023-07-20T12:40:17;29.00;52.30
45283;DHT22;31023;44.994;1.796;2023-07-20T12:42:42;29.00;51.90
45283;DHT22;31023;44.994;1.796;2023-07-20T12:45:08;29.20;54.20
45283;DHT22;31023;44.994;1.796;2023-07-20T12:47:33;29.60;54.30
45283;DHT22;31023;44.994;1.796;2023-07-20T12:49:59;29.30;50.80
45283;DHT22;31023;44.994;1.796;2023-07-20T12:52:25;29.10;50.20
45283;DHT22;31023;44.994;1.796;2023-07-20T12:54:51;29.20;52.00
45283;DHT22;31023;44.994;1.796;2023-07-20T12:57:16;29.00;51.30
45283;DHT22;31023;44.994;1.796;2023-07-20T12:59:42;29.10;53.50
45283;DHT22;31023;44.994;1.796;2023-07-20T13:02:07;29.00;53.00
45283;DHT22;31023;44.994;1.796;2023-07-20T13:04:33;29.10;53.70
45283;DHT22;31023;44.994;1.796;2023-07-20T13:06:59;29.00;53.20
45283;DHT22;31023;44.994;1.796;2023-07-20T13:09:24;28.50;51.00
45283;DHT22;31023;44.994;1.796;2023-07-20T13:11:50;28.40;51.10
45283;DHT22;31023;44.994;1.796;2023-07-20T13:14:16;28.60;52.90
45283;DHT22;31023;44.994;1.796;2023-07-20T13:16:42;28.30;52.40
45283;DHT22;31023;44.994;1.796;2023-07-20T13:19:08;28.50;54.40
45283;DHT22;31023;44.994;1.796;2023-07-20T13:21:33;28.60;55.80
45283;DHT22;31023;44.994;1.796;2023-07-20T13:23:59;28.40;55.00
45283;DHT22;31023;44.994;1.796;2023-07-20T13:26:24;28.30;55.30
45283;DHT22;31023;44.994;1.796;2023-07-20T13:28:50;28.60;53.10
45283;DHT22;31023;44.994;1.796;2023-07-20T13:31:15;28.30;51.20
45283;DHT22;31023;44.994;1.796;2023-07-20T13:33:42;28.10;51.60
45283;DHT22;31023;44.994;1.796;2023-07-20T13:36:08;28.30;53.20
45283;DHT22;31023;44.994;1.796;2023-07-20T13:38:33;28.40;55.30
45283;DHT22;31023;44.994;1.796;2023-07-20T13:40:59;28.30;54.80
45283;DHT22;31023;44.994;1.796;2023-07-20T13:43:24;28.40;56.20
45283;DHT22;31023;44.994;1.796;2023-07-20T13:45:50;28.50;56.30
45283;DHT22;31023;44.994;1.796;2023-07-20T13:48:16;28.50;56.10
45283;DHT22;31023;44.994;1.796;2023-07-20T13:50:45;28.40;56.40
45283;DHT22;31023;44.994;1.796;2023-07-20T13:53:10;28.30;56.50
45283;DHT22;31023;44.994;1.796;2023-07-20T13:55:37;28.30;56.20
45283;DHT22;31023;44.994;1.796;2023-07-20T13:58:03;28.10;53.80
45283;DHT22;31023;44.994;1.796;2023-07-20T14:00:29;28.00;52.20
45283;DHT22;31023;44.994;1.796;2023-07-20T14:03:00;27.80;51.50
45283;DHT22;31023;44.994;1.796;2023-07-20T14:05:26;27.80;53.10
45283;DHT22;31023;44.994;1.796;2023-07-20T14:07:51;28.00;54.10
45283;DHT22;31023;44.994;1.796;2023-07-20T14:10:17;27.70;51.10
45283;DHT22;31023;44.994;1.796;2023-07-20T14:12:43;27.70;52.90
45283;DHT22;31023;44.994;1.796;2023-07-20T14:15:10;28.00;55.60
45283;DHT22;31023;44.994;1.796;2023-07-20T14:17:35;27.80;51.20
45283;DHT22;31023;44.994;1.796;2023-07-20T14:20:01;28.00;54.00
45283;DHT22;31023;44.994;1.796;2023-07-20T14:22:27;28.10;54.00
45283;DHT22;31023;44.994;1.796;2023-07-20T14:24:52;28.00;51.30
45283;DHT22;31023;44.994;1.796;2023-07-20T14:27:18;28.00;52.00
45283;DHT22;31023;44.994;1.796;2023-07-20T14:29:44;28.00;52.90
45283;DHT22;31023;44.994;1.796;2023-07-20T14:32:10;27.80;53.70
45283;DHT22;31023;44.994;1.796;2023-07-20T14:34:35;27.90;54.80
45283;DHT22;31023;44.994;1.796;2023-07-20T14:37:01;27.80;50.60
45283;DHT22;31023;44.994;1.796;2023-07-20T14:39:27;27.80;52.00
45283;DHT22;31023;44.994;1.796;2023-07-20T14:41:52;27.60;49.80
45283;DHT22;31023;44.994;1.796;2023-07-20T14:44:18;27.50;50.70
45283;DHT22;31023;44.994;1.796;2023-07-20T14:46:43;27.50;50.70
45283;DHT22;31023;44.994;1.796;2023-07-20T14:49:09;27.50;51.30
45283;DHT22;31023;44.994;1.796;2023-07-20T14:51:36;27.50;53.80
45283;DHT22;31023;44.994;1.796;2023-07-20T14:54:08;27.60;51.70
45283;DHT22;31023;44.994;1.796;2023-07-20T14:56:33;27.60;51.80
45283;DHT22;31023;44.994;1.796;2023-07-20T14:58:59;27.60;54.40
45283;DHT22;31023;44.994;1.796;2023-07-20T15:01:25;27.50;53.00
45283;DHT22;31023;44.994;1.796;2023-07-20T15:03:51;27.40;55.10
45283;DHT22;31023;44.994;1.796;2023-07-20T15:06:19;27.40;52.70
45283;DHT22;31023;44.994;1.796;2023-07-20T15:08:44;27.40;53.40
45283;DHT22;31023;44.994;1.796;2023-07-20T15:11:10;27.30;53.60
45283;DHT22;31023;44.994;1.796;2023-07-20T15:13:35;27.30;54.40
45283;DHT22;31023;44.994;1.796;2023-07-20T15:16:01;27.40;54.60
45283;DHT22;31023;44.994;1.796;2023-07-20T15:18:26;27.30;54.00
45283;DHT22;31023;44.994;1.796;2023-07-20T15:20:52;27.30;53.30
45283;DHT22;31023;44.994;1.796;2023-07-20T15:23:19;27.10;50.00
45283;DHT22;31023;44.994;1.796;2023-07-20T15:25:45;27.10;53.10
45283;DHT22;31023;44.994;1.796;2023-07-20T15:28:10;27.10;54.50
45283;DHT22;31023;44.994;1.796;2023-07-20T15:30:36;27.10;52.20
45283;DHT22;31023;44.994;1.796;2023-07-20T15:33:02;26.90;49.40
45283;DHT22;31023;44.994;1.796;2023-07-20T15:35:27;26.90;51.00
45283;DHT22;31023;44.994;1.796;2023-07-20T15:37:53;26.90;50.50
45283;DHT22;31023;44.994;1.796;2023-07-20T15:40:18;27.00;52.50
45283;DHT22;31023;44.994;1.796;2023-07-20T15:42:44;27.00;51.80
45283;DHT22;31023;44.994;1.796;2023-07-20T15:45:10;26.90;49.30